sensor_id;sensor_type;location;lat;lon;timestamp;P1;durP1;ratioP1;P2;durP2;ratioP2
10041;SDS011;5061;49.068;12.058;2023-02-15T00:00:26;15.13;;;6.57;;
10041;SDS011;5061;49.068;12.058;2023-02-15T00:03:50;11.40;;;6.20;;
10041;SDS011;5061;49.068;12.058;2023-02-15T00:07:11;12.80;;;5.83;;
10041;SDS011;5061;49.068;12.058;2023-02-15T00:10:33;18.77;;;8.10;;
10041;SDS011;5061;49.068;12.058;2023-02-15T00:13:53;13.50;;;6.67;;
10041;SDS011;5061;49.068;12.058;2023-02-15T00:17:14;12.50;;;5.87;;
10041;SDS011;5061;49.068;12.058;2023-02-15T00:20:34;15.87;;;7.50;;
10041;SDS011;5061;49.068;12.058;2023-02-15T00:23:55;18.00;;;7.40;;
10041;SDS011;5061;49.068;12.058;2023-02-15T00:27:17;16.37;;;7.80;;
10041;SDS011;5061;49.068;12.058;2023-02-15T00:30:37;14.47;;;6.23;;
10041;SDS011;5061;49.068;12.058;2023-02-15T00:34:02;18.77;;;6.57;;
10041;SDS011;5061;49.068;12.058;2023-02-15T00:37:23;15.27;;;7.17;;
10041;SDS011;5061;49.068;12.058;2023-02-15T00:40:44;13.10;;;6.63;;
10041;SDS011;5061;49.068;12.058;2023-02-15T00:44:13;11.27;;;5.40;;
10041;SDS011;5061;49.068;12.058;2023-02-15T00:47:33;13.30;;;6.07;;
10041;SDS011;5061;49.068;12.058;2023-02-15T00:50:58;12.50;;;5.47;;
10041;SDS011;5061;49.068;12.058;2023-02-15T00:54:20;13.20;;;6.47;;
10041;SDS011;5061;49.068;12.058;2023-02-15T00:57:40;10.63;;;5.37;;
10041;SDS011;5061;49.068;12.058;2023-02-15T01:01:05;12.40;;;5.73;;
10041;SDS011;5061;49.068;12.058;2023-02-15T01:04:27;15.10;;;7.40;;
10041;SDS011;5061;49.068;12.058;2023-02-15T01:07:48;16.50;;;6.90;;
10041;SDS011;5061;49.068;12.058;2023-02-15T01:11:10;13.67;;;6.83;;
10041;SDS011;5061;49.068;12.058;2023-02-15T01:14:32;10.57;;;5.70;;
10041;SDS011;5061;49.068;12.058;2023-02-15T01:17:53;12.80;;;6.30;;
10041;SDS011;5061;49.068;12.058;2023-02-15T01:21:15;11.60;;;4.93;;
10041;SDS011;5061;49.068;12.058;2023-02-15T01:24:38;13.87;;;6.00;;
10041;SDS011;5061;49.068;12.058;2023-02-15T01:27:58;11.80;;;5.73;;
10041;SDS011;5061;49.068;12.058;2023-02-15T01:31:20;12.50;;;5.70;;
10041;SDS011;5061;49.068;12.058;2023-02-15T01:34:41;13.80;;;6.23;;
10041;SDS011;5061;49.068;12.058;2023-02-15T01:38:01;14.80;;;5.83;;
10041;SDS011;5061;49.068;12.058;2023-02-15T01:41:22;15.17;;;7.10;;
10041;SDS011;5061;49.068;12.058;2023-02-15T01:44:56;15.77;;;6.43;;
10041;SDS011;5061;49.068;12.058;2023-02-15T01:48:22;16.03;;;6.40;;
10041;SDS011;5061;49.068;12.058;2023-02-15T01:51:48;11.43;;;5.67;;
10041;SDS011;5061;49.068;12.058;2023-02-15T01:55:10;10.93;;;6.33;;
10041;SDS011;5061;49.068;12.058;2023-02-15T01:58:32;11.07;;;5.30;;
10041;SDS011;5061;49.068;12.058;2023-02-15T02:01:55;12.43;;;5.73;;
10041;SDS011;5061;49.068;12.058;2023-02-15T02:05:19;13.30;;;6.00;;
10041;SDS011;5061;49.068;12.058;2023-02-15T02:08:44;11.63;;;6.00;;
10041;SDS011;5061;49.068;12.058;2023-02-15T02:12:06;15.97;;;6.53;;
10041;SDS011;5061;49.068;12.058;2023-02-15T02:15:30;10.57;;;5.17;;
10041;SDS011;5061;49.068;12.058;2023-02-15T02:26:54;12.60;;;6.03;;
10041;SDS011;5061;49.068;12.058;2023-02-15T02:34:16;17.83;;;6.37;;
10041;SDS011;5061;49.068;12.058;2023-02-15T02:37:59;12.47;;;6.43;;
10041;SDS011;5061;49.068;12.058;2023-02-15T02:42:06;12.20;;;5.17;;
10041;SDS011;5061;49.068;12.058;2023-02-15T02:45:45;10.63;;;4.80;;
10041;SDS011;5061;49.068;12.058;2023-02-15T02:49:12;12.37;;;5.50;;
10041;SDS011;5061;49.068;12.058;2023-02-15T02:55:58;11.83;;;4.60;;
10041;SDS011;5061;49.068;12.058;2023-02-15T02:59:27;9.63;;;4.77;;
10041;SDS011;5061;49.068;12.058;2023-02-15T03:02:55;10.37;;;5.13;;
10041;SDS011;5061;49.068;12.058;2023-02-15T03:06:27;15.83;;;7.50;;
10041;SDS011;5061;49.068;12.058;2023-02-15T03:09:57;13.17;;;5.70;;
10041;SDS011;5061;49.068;12.058;2023-02-15T03:13:20;12.27;;;5.60;;
10041;SDS011;5061;49.068;12.058;2023-02-15T03:16:41;12.23;;;5.37;;
10041;SDS011;5061;49.068;12.058;2023-02-15T03:20:09;11.50;;;4.80;;
10041;SDS011;5061;49.068;12.058;2023-02-15T03:23:38;10.40;;;4.57;;
10041;SDS011;5061;49.068;12.058;2023-02-15T03:27:00;10.83;;;4.60;;
10041;SDS011;5061;49.068;12.058;2023-02-15T03:30:24;7.00;;;3.90;;
10041;SDS011;5061;49.068;12.058;2023-02-15T03:33:55;10.00;;;5.27;;
10041;SDS011;5061;49.068;12.058;2023-02-15T03:40:46;9.50;;;4.50;;
10041;SDS011;5061;49.068;12.058;2023-02-15T03:44:30;11.63;;;5.37;;
10041;SDS011;5061;49.068;12.058;2023-02-15T03:47:52;13.07;;;4.90;;
10041;SDS011;5061;49.068;12.058;2023-02-15T03:51:20;14.00;;;6.47;;
10041;SDS011;5061;49.068;12.058;2023-02-15T03:54:55;15.70;;;6.30;;
10041;SDS011;5061;49.068;12.058;2023-02-15T03:58:16;11.37;;;5.43;;
10041;SDS011;5061;49.068;12.058;2023-02-15T04:05:24;12.77;;;6.07;;
10041;SDS011;5061;49.068;12.058;2023-02-15T04:08:44;11.70;;;4.67;;
10041;SDS011;5061;49.068;12.058;2023-02-15T04:12:24;11.67;;;5.60;;
10041;SDS011;5061;49.068;12.058;2023-02-15T04:15:44;12.07;;;5.13;;
10041;SDS011;5061;49.068;12.058;2023-02-15T04:19:23;11.57;;;5.90;;
10041;SDS011;5061;49.068;12.058;2023-02-15T04:23:05;9.07;;;4.97;;
10041;SDS011;5061;49.068;12.058;2023-02-15T04:26:47;10.30;;;5.60;;
10041;SDS011;5061;49.068;12.058;2023-02-15T04:30:08;11.77;;;5.73;;
10041;SDS011;5061;49.068;12.058;2023-02-15T04:33:30;11.67;;;5.17;;
10041;SDS011;5061;49.068;12.058;2023-02-15T04:36:50;9.87;;;4.57;;
10041;SDS011;5061;49.068;12.058;2023-02-15T04:40:12;14.83;;;5.97;;
10041;SDS011;5061;49.068;12.058;2023-02-15T04:43:34;16.23;;;7.70;;
10041;SDS011;5061;49.068;12.058;2023-02-15T04:46:54;25.73;;;8.20;;
10041;SDS011;5061;49.068;12.058;2023-02-15T04:50:15;16.67;;;6.70;;
10041;SDS011;5061;49.068;12.058;2023-02-15T04:53:36;13.80;;;5.57;;
10041;SDS011;5061;49.068;12.058;2023-02-15T04:56:56;12.20;;;5.53;;
10041;SDS011;5061;49.068;12.058;2023-02-15T05:00:17;9.60;;;4.70;;
10041;SDS011;5061;49.068;12.058;2023-02-15T05:03:38;13.10;;;5.43;;
10041;SDS011;5061;49.068;12.058;2023-02-15T05:06:59;15.13;;;6.50;;
10041;SDS011;5061;49.068;12.058;2023-02-15T05:10:19;13.10;;;5.40;;
10041;SDS011;5061;49.068;12.058;2023-02-15T05:13:40;10.97;;;5.23;;
10041;SDS011;5061;49.068;12.058;2023-02-15T05:17:01;11.73;;;5.30;;
10041;SDS011;5061;49.068;12.058;2023-02-15T05:20:23;14.97;;;6.70;;
10041;SDS011;5061;49.068;12.058;2023-02-15T05:23:43;14.77;;;6.87;;
10041;SDS011;5061;49.068;12.058;2023-02-15T05:27:04;19.00;;;8.00;;
10041;SDS011;5061;49.068;12.058;2023-02-15T05:30:44;15.10;;;7.00;;
10041;SDS011;5061;49.068;12.058;2023-02-15T05:34:09;12.93;;;6.57;;
10041;SDS011;5061;49.068;12.058;2023-02-15T05:37:29;14.70;;;5.70;;
10041;SDS011;5061;49.068;12.058;2023-02-15T05:40:50;17.50;;;6.33;;
10041;SDS011;5061;49.068;12.058;2023-02-15T05:44:11;11.77;;;5.60;;
10041;SDS011;5061;49.068;12.058;2023-02-15T05:47:32;9.73;;;4.97;;
10041;SDS011;5061;49.068;12.058;2023-02-15T05:51:00;15.77;;;7.83;;
10041;SDS011;5061;49.068;12.058;2023-02-15T05:54:29;15.87;;;8.10;;
10041;SDS011;5061;49.068;12.058;2023-02-15T05:57:49;21.70;;;9.30;;
10041;SDS011;5061;49.068;12.058;2023-02-15T06:01:11;22.30;;;9.30;;
10041;SDS011;5061;49.068;12.058;2023-02-15T06:04:33;16.13;;;7.40;;
10041;SDS011;5061;49.068;12.058;2023-02-15T06:07:54;15.10;;;6.17;;
10041;SDS011;5061;49.068;12.058;2023-02-15T06:11:15;12.23;;;6.00;;
10041;SDS011;5061;49.068;12.058;2023-02-15T06:14:35;18.73;;;8.50;;
10041;SDS011;5061;49.068;12.058;2023-02-15T06:17:56;16.37;;;7.10;;
10041;SDS011;5061;49.068;12.058;2023-02-15T06:21:16;16.33;;;6.40;;
10041;SDS011;5061;49.068;12.058;2023-02-15T06:24:37;18.90;;;7.33;;
10041;SDS011;5061;49.068;12.058;2023-02-15T06:27:58;19.07;;;7.20;;
10041;SDS011;5061;49.068;12.058;2023-02-15T06:31:18;15.60;;;6.93;;
10041;SDS011;5061;49.068;12.058;2023-02-15T06:34:39;15.13;;;7.40;;
10041;SDS011;5061;49.068;12.058;2023-02-15T06:37:59;19.13;;;8.17;;
10041;SDS011;5061;49.068;12.058;2023-02-15T06:41:20;21.10;;;8.80;;
10041;SDS011;5061;49.068;12.058;2023-02-15T06:44:41;17.93;;;8.40;;
10041;SDS011;5061;49.068;12.058;2023-02-15T06:48:01;21.90;;;8.30;;
10041;SDS011;5061;49.068;12.058;2023-02-15T06:51:22;21.47;;;8.93;;
10041;SDS011;5061;49.068;12.058;2023-02-15T06:54:43;13.40;;;6.70;;
10041;SDS011;5061;49.068;12.058;2023-02-15T06:58:03;19.10;;;8.40;;
10041;SDS011;5061;49.068;12.058;2023-02-15T07:01:24;17.73;;;7.70;;
10041;SDS011;5061;49.068;12.058;2023-02-15T07:04:44;15.87;;;7.20;;
10041;SDS011;5061;49.068;12.058;2023-02-15T07:08:05;17.17;;;7.67;;
10041;SDS011;5061;49.068;12.058;2023-02-15T07:11:26;13.40;;;6.50;;
10041;SDS011;5061;49.068;12.058;2023-02-15T07:15:05;16.37;;;6.80;;
10041;SDS011;5061;49.068;12.058;2023-02-15T07:18:27;16.90;;;6.80;;
10041;SDS011;5061;49.068;12.058;2023-02-15T07:21:48;14.13;;;6.83;;
10041;SDS011;5061;49.068;12.058;2023-02-15T07:25:09;12.37;;;6.10;;
10041;SDS011;5061;49.068;12.058;2023-02-15T07:28:31;16.30;;;7.50;;
10041;SDS011;5061;49.068;12.058;2023-02-15T07:31:52;17.57;;;7.17;;
10041;SDS011;5061;49.068;12.058;2023-02-15T07:35:13;17.37;;;7.70;;
10041;SDS011;5061;49.068;12.058;2023-02-15T07:38:35;16.47;;;6.40;;
10041;SDS011;5061;49.068;12.058;2023-02-15T07:41:57;15.93;;;7.30;;
10041;SDS011;5061;49.068;12.058;2023-02-15T07:45:17;11.70;;;6.10;;
10041;SDS011;5061;49.068;12.058;2023-02-15T07:48:39;15.47;;;8.17;;
10041;SDS011;5061;49.068;12.058;2023-02-15T07:52:00;48.60;;;15.43;;
10041;SDS011;5061;49.068;12.058;2023-02-15T07:55:21;50.10;;;16.33;;
10041;SDS011;5061;49.068;12.058;2023-02-15T07:58:42;58.30;;;18.80;;
10041;SDS011;5061;49.068;12.058;2023-02-15T08:02:11;55.07;;;16.80;;
10041;SDS011;5061;49.068;12.058;2023-02-15T08:05:32;35.53;;;13.23;;
10041;SDS011;5061;49.068;12.058;2023-02-15T08:08:53;34.73;;;12.63;;
10041;SDS011;5061;49.068;12.058;2023-02-15T08:12:13;21.10;;;8.77;;
10041;SDS011;5061;49.068;12.058;2023-02-15T08:15:34;16.93;;;8.27;;
10041;SDS011;5061;49.068;12.058;2023-02-15T08:18:55;15.07;;;7.17;;
10041;SDS011;5061;49.068;12.058;2023-02-15T08:22:17;20.77;;;8.40;;
10041;SDS011;5061;49.068;12.058;2023-02-15T08:25:38;20.07;;;8.17;;
10041;SDS011;5061;49.068;12.058;2023-02-15T08:28:58;20.67;;;9.60;;
10041;SDS011;5061;49.068;12.058;2023-02-15T08:32:20;21.30;;;9.60;;
10041;SDS011;5061;49.068;12.058;2023-02-15T08:35:40;12.90;;;6.40;;
10041;SDS011;5061;49.068;12.058;2023-02-15T08:39:02;19.93;;;8.93;;
10041;SDS011;5061;49.068;12.058;2023-02-15T08:42:24;17.53;;;8.40;;
10041;SDS011;5061;49.068;12.058;2023-02-15T08:45:44;14.63;;;7.70;;
10041;SDS011;5061;49.068;12.058;2023-02-15T08:49:06;15.63;;;8.37;;
10041;SDS011;5061;49.068;12.058;2023-02-15T08:52:26;20.27;;;8.67;;
10041;SDS011;5061;49.068;12.058;2023-02-15T08:55:54;18.67;;;7.90;;
10041;SDS011;5061;49.068;12.058;2023-02-15T08:59:19;15.43;;;7.60;;
10041;SDS011;5061;49.068;12.058;2023-02-15T09:02:41;18.53;;;8.70;;
10041;SDS011;5061;49.068;12.058;2023-02-15T09:06:02;16.90;;;9.13;;
10041;SDS011;5061;49.068;12.058;2023-02-15T09:09:23;18.40;;;8.13;;
10041;SDS011;5061;49.068;12.058;2023-02-15T09:12:44;12.83;;;7.10;;
10041;SDS011;5061;49.068;12.058;2023-02-15T09:16:06;17.80;;;7.80;;
10041;SDS011;5061;49.068;12.058;2023-02-15T09:19:27;13.90;;;6.77;;
10041;SDS011;5061;49.068;12.058;2023-02-15T09:22:48;13.10;;;7.00;;
10041;SDS011;5061;49.068;12.058;2023-02-15T09:26:10;14.80;;;7.00;;
10041;SDS011;5061;49.068;12.058;2023-02-15T09:29:35;12.90;;;6.80;;
10041;SDS011;5061;49.068;12.058;2023-02-15T09:32:56;18.07;;;7.87;;
10041;SDS011;5061;49.068;12.058;2023-02-15T09:36:38;20.50;;;9.50;;
10041;SDS011;5061;49.068;12.058;2023-02-15T09:39:58;17.90;;;8.77;;
10041;SDS011;5061;49.068;12.058;2023-02-15T09:43:33;15.60;;;7.40;;
10041;SDS011;5061;49.068;12.058;2023-02-15T09:51:22;16.10;;;7.57;;
10041;SDS011;5061;49.068;12.058;2023-02-15T10:09:22;15.37;;;8.40;;
10041;SDS011;5061;49.068;12.058;2023-02-15T10:21:04;17.90;;;8.53;;
10041;SDS011;5061;49.068;12.058;2023-02-15T10:28:26;15.60;;;7.70;;
10041;SDS011;5061;49.068;12.058;2023-02-15T10:32:24;16.33;;;7.87;;
10041;SDS011;5061;49.068;12.058;2023-02-15T10:35:56;12.50;;;6.70;;
10041;SDS011;5061;49.068;12.058;2023-02-15T10:50:48;14.63;;;7.87;;
10041;SDS011;5061;49.068;12.058;2023-02-15T10:57:46;18.60;;;8.13;;
10041;SDS011;5061;49.068;12.058;2023-02-15T11:04:55;19.40;;;8.90;;
10041;SDS011;5061;49.068;12.058;2023-02-15T11:08:35;23.93;;;10.33;;
10041;SDS011;5061;49.068;12.058;2023-02-15T11:12:00;30.13;;;12.00;;
10041;SDS011;5061;49.068;12.058;2023-02-15T11:15:26;28.80;;;13.57;;
10041;SDS011;5061;49.068;12.058;2023-02-15T11:19:30;30.07;;;11.50;;
10041;SDS011;5061;49.068;12.058;2023-02-15T11:22:54;22.80;;;10.20;;
10041;SDS011;5061;49.068;12.058;2023-02-15T11:26:34;21.17;;;10.60;;
10041;SDS011;5061;49.068;12.058;2023-02-15T11:30:02;14.93;;;7.80;;
10041;SDS011;5061;49.068;12.058;2023-02-15T11:33:39;14.77;;;7.37;;
10041;SDS011;5061;49.068;12.058;2023-02-15T11:37:06;13.13;;;7.30;;
10041;SDS011;5061;49.068;12.058;2023-02-15T11:40:30;23.17;;;10.33;;
10041;SDS011;5061;49.068;12.058;2023-02-15T11:44:18;25.33;;;12.50;;
10041;SDS011;5061;49.068;12.058;2023-02-15T11:47:43;26.73;;;13.10;;
10041;SDS011;5061;49.068;12.058;2023-02-15T11:51:04;26.00;;;12.20;;
10041;SDS011;5061;49.068;12.058;2023-02-15T11:54:29;22.83;;;11.53;;
10041;SDS011;5061;49.068;12.058;2023-02-15T11:58:03;31.37;;;14.60;;
10041;SDS011;5061;49.068;12.058;2023-02-15T12:01:36;27.10;;;12.53;;
10041;SDS011;5061;49.068;12.058;2023-02-15T12:05:06;33.20;;;13.13;;
10041;SDS011;5061;49.068;12.058;2023-02-15T12:08:37;35.43;;;14.83;;
10041;SDS011;5061;49.068;12.058;2023-02-15T12:15:51;24.30;;;11.50;;
10041;SDS011;5061;49.068;12.058;2023-02-15T12:23:00;24.63;;;11.43;;
10041;SDS011;5061;49.068;12.058;2023-02-15T12:26:28;33.70;;;14.83;;
10041;SDS011;5061;49.068;12.058;2023-02-15T12:30:01;39.60;;;17.77;;
10041;SDS011;5061;49.068;12.058;2023-02-15T12:33:35;34.90;;;15.13;;
10041;SDS011;5061;49.068;12.058;2023-02-15T12:37:01;31.17;;;15.33;;
10041;SDS011;5061;49.068;12.058;2023-02-15T12:40:29;24.33;;;13.43;;
10041;SDS011;5061;49.068;12.058;2023-02-15T12:44:07;27.80;;;12.60;;
10041;SDS011;5061;49.068;12.058;2023-02-15T12:47:35;21.73;;;10.27;;
10041;SDS011;5061;49.068;12.058;2023-02-15T12:50:56;20.70;;;10.10;;
10041;SDS011;5061;49.068;12.058;2023-02-15T12:54:32;23.40;;;12.00;;
10041;SDS011;5061;49.068;12.058;2023-02-15T12:58:16;20.23;;;10.73;;
10041;SDS011;5061;49.068;12.058;2023-02-15T13:01:42;21.83;;;11.30;;
10041;SDS011;5061;49.068;12.058;2023-02-15T13:05:45;23.23;;;10.43;;
10041;SDS011;5061;49.068;12.058;2023-02-15T13:08:53;21.57;;;10.90;;
10041;SDS011;5061;49.068;12.058;2023-02-15T13:15:51;20.10;;;9.73;;
10041;SDS011;5061;49.068;12.058;2023-02-15T13:19:15;20.97;;;10.57;;
10041;SDS011;5061;49.068;12.058;2023-02-15T13:22:38;25.43;;;11.73;;
10041;SDS011;5061;49.068;12.058;2023-02-15T13:26:03;27.27;;;11.23;;
10041;SDS011;5061;49.068;12.058;2023-02-15T13:29:29;20.70;;;11.03;;
10041;SDS011;5061;49.068;12.058;2023-02-15T13:32:54;14.77;;;8.67;;
10041;SDS011;5061;49.068;12.058;2023-02-15T13:43:50;17.63;;;9.43;;
10041;SDS011;5061;49.068;12.058;2023-02-15T13:47:32;25.70;;;11.60;;
10041;SDS011;5061;49.068;12.058;2023-02-15T13:58:58;19.30;;;9.13;;
10041;SDS011;5061;49.068;12.058;2023-02-15T14:21:33;24.40;;;10.90;;
10041;SDS011;5061;49.068;12.058;2023-02-15T14:28:43;24.60;;;9.77;;
10041;SDS011;5061;49.068;12.058;2023-02-15T14:32:17;20.70;;;10.53;;
10041;SDS011;5061;49.068;12.058;2023-02-15T14:36:01;22.60;;;10.27;;
10041;SDS011;5061;49.068;12.058;2023-02-15T14:43:24;19.70;;;10.17;;
10041;SDS011;5061;49.068;12.058;2023-02-15T14:46:52;16.60;;;8.73;;
10041;SDS011;5061;49.068;12.058;2023-02-15T14:50:38;19.27;;;10.00;;
10041;SDS011;5061;49.068;12.058;2023-02-15T14:54:00;24.53;;;10.70;;
10041;SDS011;5061;49.068;12.058;2023-02-15T14:57:22;20.63;;;10.10;;
10041;SDS011;5061;49.068;12.058;2023-02-15T15:00:45;14.83;;;8.00;;
10041;SDS011;5061;49.068;12.058;2023-02-15T15:04:10;21.63;;;10.37;;
10041;SDS011;5061;49.068;12.058;2023-02-15T15:07:42;24.50;;;10.60;;
10041;SDS011;5061;49.068;12.058;2023-02-15T15:14:48;19.93;;;9.13;;
10041;SDS011;5061;49.068;12.058;2023-02-15T15:18:10;18.67;;;9.73;;
10041;SDS011;5061;49.068;12.058;2023-02-15T15:22:18;25.10;;;11.80;;
10041;SDS011;5061;49.068;12.058;2023-02-15T15:25:44;18.10;;;9.87;;
10041;SDS011;5061;49.068;12.058;2023-02-15T15:29:12;22.17;;;10.33;;
10041;SDS011;5061;49.068;12.058;2023-02-15T15:32:33;21.73;;;10.20;;
10041;SDS011;5061;49.068;12.058;2023-02-15T15:51:16;28.30;;;13.60;;
10041;SDS011;5061;49.068;12.058;2023-02-15T15:58:19;24.47;;;11.30;;
10041;SDS011;5061;49.068;12.058;2023-02-15T16:01:44;20.37;;;10.37;;
10041;SDS011;5061;49.068;12.058;2023-02-15T16:05:06;22.90;;;10.90;;
10041;SDS011;5061;49.068;12.058;2023-02-15T16:08:29;20.90;;;9.03;;
10041;SDS011;5061;49.068;12.058;2023-02-15T16:11:50;20.67;;;9.73;;
10041;SDS011;5061;49.068;12.058;2023-02-15T16:18:49;36.67;;;15.10;;
10041;SDS011;5061;49.068;12.058;2023-02-15T16:22:21;32.93;;;13.43;;
10041;SDS011;5061;49.068;12.058;2023-02-15T16:29:45;26.60;;;12.70;;
10041;SDS011;5061;49.068;12.058;2023-02-15T16:36:28;28.90;;;13.17;;
10041;SDS011;5061;49.068;12.058;2023-02-15T16:39:49;25.47;;;10.43;;
10041;SDS011;5061;49.068;12.058;2023-02-15T16:43:13;22.33;;;10.07;;
10041;SDS011;5061;49.068;12.058;2023-02-15T16:46:41;25.40;;;11.27;;
10041;SDS011;5061;49.068;12.058;2023-02-15T16:50:06;22.23;;;10.13;;
10041;SDS011;5061;49.068;12.058;2023-02-15T16:53:42;21.33;;;10.83;;
10041;SDS011;5061;49.068;12.058;2023-02-15T16:57:16;18.83;;;8.57;;
10041;SDS011;5061;49.068;12.058;2023-02-15T17:00:39;16.73;;;7.50;;
10041;SDS011;5061;49.068;12.058;2023-02-15T17:04:13;16.30;;;8.10;;
10041;SDS011;5061;49.068;12.058;2023-02-15T17:07:40;19.70;;;10.30;;
10041;SDS011;5061;49.068;12.058;2023-02-15T17:11:15;20.57;;;9.70;;
10041;SDS011;5061;49.068;12.058;2023-02-15T17:14:39;24.27;;;12.17;;
10041;SDS011;5061;49.068;12.058;2023-02-15T17:18:11;23.90;;;11.07;;
10041;SDS011;5061;49.068;12.058;2023-02-15T17:21:40;17.23;;;9.03;;
10041;SDS011;5061;49.068;12.058;2023-02-15T17:25:28;17.67;;;8.77;;
10041;SDS011;5061;49.068;12.058;2023-02-15T17:32:51;21.30;;;10.23;;
10041;SDS011;5061;49.068;12.058;2023-02-15T17:36:21;23.73;;;10.87;;
10041;SDS011;5061;49.068;12.058;2023-02-15T17:39:43;20.10;;;10.33;;
10041;SDS011;5061;49.068;12.058;2023-02-15T17:43:03;18.33;;;9.43;;
10041;SDS011;5061;49.068;12.058;2023-02-15T17:46:24;19.17;;;8.80;;
10041;SDS011;5061;49.068;12.058;2023-02-15T17:49:47;18.90;;;10.10;;
10041;SDS011;5061;49.068;12.058;2023-02-15T17:53:09;18.70;;;9.50;;
10041;SDS011;5061;49.068;12.058;2023-02-15T17:56:30;24.90;;;10.20;;
10041;SDS011;5061;49.068;12.058;2023-02-15T17:59:55;19.60;;;11.03;;
10041;SDS011;5061;49.068;12.058;2023-02-15T18:03:42;21.67;;;11.30;;
10041;SDS011;5061;49.068;12.058;2023-02-15T18:07:24;18.03;;;7.83;;
10041;SDS011;5061;49.068;12.058;2023-02-15T18:11:03;24.43;;;10.30;;
10041;SDS011;5061;49.068;12.058;2023-02-15T18:14:42;26.30;;;12.07;;
10041;SDS011;5061;49.068;12.058;2023-02-15T18:18:03;28.57;;;13.10;;
10041;SDS011;5061;49.068;12.058;2023-02-15T18:21:24;23.70;;;11.30;;
10041;SDS011;5061;49.068;12.058;2023-02-15T18:24:45;27.70;;;12.23;;
10041;SDS011;5061;49.068;12.058;2023-02-15T18:28:08;21.13;;;10.10;;
10041;SDS011;5061;49.068;12.058;2023-02-15T18:31:32;27.50;;;12.37;;
10041;SDS011;5061;49.068;12.058;2023-02-15T18:34:53;26.27;;;12.80;;
10041;SDS011;5061;49.068;12.058;2023-02-15T18:38:16;26.43;;;12.27;;
10041;SDS011;5061;49.068;12.058;2023-02-15T18:41:39;23.90;;;10.03;;
10041;SDS011;5061;49.068;12.058;2023-02-15T18:45:01;20.23;;;9.20;;
10041;SDS011;5061;49.068;12.058;2023-02-15T18:48:33;15.80;;;7.60;;
10041;SDS011;5061;49.068;12.058;2023-02-15T18:51:54;17.93;;;9.27;;
10041;SDS011;5061;49.068;12.058;2023-02-15T18:55:21;14.90;;;6.93;;
10041;SDS011;5061;49.068;12.058;2023-02-15T18:58:44;16.30;;;7.80;;
10041;SDS011;5061;49.068;12.058;2023-02-15T19:02:12;20.63;;;9.87;;
10041;SDS011;5061;49.068;12.058;2023-02-15T19:05:34;31.00;;;12.20;;
10041;SDS011;5061;49.068;12.058;2023-02-15T19:08:55;19.93;;;10.33;;
10041;SDS011;5061;49.068;12.058;2023-02-15T19:12:15;26.53;;;12.00;;
10041;SDS011;5061;49.068;12.058;2023-02-15T19:15:38;27.37;;;13.57;;
10041;SDS011;5061;49.068;12.058;2023-02-15T19:18:59;23.97;;;11.17;;
10041;SDS011;5061;49.068;12.058;2023-02-15T19:25:46;29.17;;;12.73;;
10041;SDS011;5061;49.068;12.058;2023-02-15T19:29:09;26.20;;;11.70;;
10041;SDS011;5061;49.068;12.058;2023-02-15T19:32:31;23.40;;;11.90;;
10041;SDS011;5061;49.068;12.058;2023-02-15T19:35:52;27.90;;;11.87;;
10041;SDS011;5061;49.068;12.058;2023-02-15T19:42:51;22.27;;;11.10;;
10041;SDS011;5061;49.068;12.058;2023-02-15T19:46:14;23.20;;;11.90;;
10041;SDS011;5061;49.068;12.058;2023-02-15T19:49:38;22.33;;;10.80;;
10041;SDS011;5061;49.068;12.058;2023-02-15T19:52:59;18.93;;;9.83;;
10041;SDS011;5061;49.068;12.058;2023-02-15T19:56:21;29.83;;;12.83;;
10041;SDS011;5061;49.068;12.058;2023-02-15T19:59:43;24.07;;;11.27;;
10041;SDS011;5061;49.068;12.058;2023-02-15T20:03:03;21.13;;;9.70;;
10041;SDS011;5061;49.068;12.058;2023-02-15T20:06:24;20.80;;;10.13;;
10041;SDS011;5061;49.068;12.058;2023-02-15T20:09:45;19.47;;;8.67;;
10041;SDS011;5061;49.068;12.058;2023-02-15T20:13:08;18.17;;;9.17;;
10041;SDS011;5061;49.068;12.058;2023-02-15T20:16:32;18.73;;;9.03;;
10041;SDS011;5061;49.068;12.058;2023-02-15T20:19:53;15.27;;;8.23;;
10041;SDS011;5061;49.068;12.058;2023-02-15T20:26:45;14.00;;;7.37;;
10041;SDS011;5061;49.068;12.058;2023-02-15T20:30:12;13.07;;;7.07;;
10041;SDS011;5061;49.068;12.058;2023-02-15T20:33:35;20.43;;;10.10;;
10041;SDS011;5061;49.068;12.058;2023-02-15T20:36:55;17.43;;;7.57;;
10041;SDS011;5061;49.068;12.058;2023-02-15T20:40:18;19.00;;;9.10;;
10041;SDS011;5061;49.068;12.058;2023-02-15T20:43:44;20.27;;;9.80;;
10041;SDS011;5061;49.068;12.058;2023-02-15T20:47:04;20.07;;;10.07;;
10041;SDS011;5061;49.068;12.058;2023-02-15T20:50:26;18.80;;;9.20;;
10041;SDS011;5061;49.068;12.058;2023-02-15T20:53:49;23.13;;;9.63;;
10041;SDS011;5061;49.068;12.058;2023-02-15T20:57:13;21.47;;;10.00;;
10041;SDS011;5061;49.068;12.058;2023-02-15T21:00:33;22.63;;;9.40;;
10041;SDS011;5061;49.068;12.058;2023-02-15T21:03:54;18.93;;;10.13;;
10041;SDS011;5061;49.068;12.058;2023-02-15T21:07:15;25.40;;;11.33;;
10041;SDS011;5061;49.068;12.058;2023-02-15T21:10:37;27.03;;;11.60;;
10041;SDS011;5061;49.068;12.058;2023-02-15T21:13:59;21.60;;;10.67;;
10041;SDS011;5061;49.068;12.058;2023-02-15T21:17:19;25.33;;;12.50;;
10041;SDS011;5061;49.068;12.058;2023-02-15T21:20:42;23.77;;;11.90;;
10041;SDS011;5061;49.068;12.058;2023-02-15T21:24:05;28.77;;;12.50;;
10041;SDS011;5061;49.068;12.058;2023-02-15T21:27:29;35.60;;;14.07;;
10041;SDS011;5061;49.068;12.058;2023-02-15T21:30:50;28.50;;;12.93;;
10041;SDS011;5061;49.068;12.058;2023-02-15T21:34:12;26.77;;;12.57;;
10041;SDS011;5061;49.068;12.058;2023-02-15T21:37:34;26.03;;;12.30;;
10041;SDS011;5061;49.068;12.058;2023-02-15T21:40:55;25.70;;;12.67;;
10041;SDS011;5061;49.068;12.058;2023-02-15T21:44:35;36.53;;;14.27;;
10041;SDS011;5061;49.068;12.058;2023-02-15T21:48:15;29.63;;;12.67;;
10041;SDS011;5061;49.068;12.058;2023-02-15T21:51:35;23.20;;;11.00;;
10041;SDS011;5061;49.068;12.058;2023-02-15T21:55:15;24.43;;;10.67;;
10041;SDS011;5061;49.068;12.058;2023-02-15T21:58:35;24.37;;;11.03;;
10041;SDS011;5061;49.068;12.058;2023-02-15T22:01:56;28.40;;;13.17;;
10041;SDS011;5061;49.068;12.058;2023-02-15T22:05:19;31.67;;;14.27;;
10041;SDS011;5061;49.068;12.058;2023-02-15T22:08:47;32.50;;;15.53;;
10041;SDS011;5061;49.068;12.058;2023-02-15T22:12:09;25.63;;;12.23;;
10041;SDS011;5061;49.068;12.058;2023-02-15T22:15:38;22.60;;;11.90;;
10041;SDS011;5061;49.068;12.058;2023-02-15T22:18:58;23.17;;;10.80;;
10041;SDS011;5061;49.068;12.058;2023-02-15T22:22:19;26.00;;;11.47;;
10041;SDS011;5061;49.068;12.058;2023-02-15T22:25:39;22.37;;;11.70;;
10041;SDS011;5061;49.068;12.058;2023-02-15T22:29:00;30.60;;;12.37;;
10041;SDS011;5061;49.068;12.058;2023-02-15T22:32:22;23.37;;;11.20;;
10041;SDS011;5061;49.068;12.058;2023-02-15T22:35:44;26.20;;;11.73;;
10041;SDS011;5061;49.068;12.058;2023-02-15T22:39:05;24.90;;;11.50;;
10041;SDS011;5061;49.068;12.058;2023-02-15T22:42:25;24.90;;;11.83;;
10041;SDS011;5061;49.068;12.058;2023-02-15T22:45:47;26.80;;;12.50;;
10041;SDS011;5061;49.068;12.058;2023-02-15T22:49:12;22.50;;;10.90;;
10041;SDS011;5061;49.068;12.058;2023-02-15T22:52:33;20.80;;;9.97;;
10041;SDS011;5061;49.068;12.058;2023-02-15T22:55:54;23.60;;;12.00;;
10041;SDS011;5061;49.068;12.058;2023-02-15T23:02:47;25.13;;;11.60;;
10041;SDS011;5061;49.068;12.058;2023-02-15T23:06:08;22.50;;;11.60;;